Time;durP1;ratioP1;P1;durP2;ratioP2;P2;SDS_P1;SDS_P2;PMS_P1;PMS_P2;Temp;Humidity;BMP_temperature;BMP_pressure;BME280_temperature;BME280_humidity;BME280_pressure;Samples;Min_cycle;Max_cycle;Signal;HPM_P1;HPM_P2
2023/08/15 00:00:20;;;;;;;17.33;9.95;;;;;;;-144.73;100.00;54391.28;4974277;28;20105;-76
2023/08/15 00:02:46;;;;;;;18.92;9.52;;;;;;;-144.73;100.00;54366.66;4973730;28;20034;-75
2023/08/15 00:05:11;;;;;;;19.33;9.57;;;;;;;-144.73;100.00;54342.03;4972816;28;20134;-76
2023/08/15 00:07:36;;;;;;;21.02;9.50;;;;;;;-144.73;100.00;54360.50;4973761;28;20090;-75
2023/08/15 00:10:02;;;;;;;18.52;8.90;;;;;;;-144.73;100.00;54358.44;4973621;28;20027;-75
2023/08/15 00:12:27;;;;;;;25.20;8.25;;;;;;;-144.73;100.00;54370.75;4989393;28;20038;-74
2023/08/15 00:14:53;;;;;;;18.77;8.77;;;;;;;-144.73;100.00;54374.84;4975557;28;20057;-74
2023/08/15 00:17:18;;;;;;;16.48;8.32;;;;;;;-144.73;100.00;54399.50;4985814;28;20038;-75
2023/08/15 00:19:44;;;;;;;13.93;7.53;;;;;;;-144.73;100.00;54356.38;4976754;28;20090;-75
2023/08/15 00:22:19;;;;;;;18.27;8.32;;;;;;;-144.73;100.00;54350.22;4980770;28;20034;-76
2023/08/15 00:24:44;;;;;;;19.67;7.88;;;;;;;-144.73;100.00;54376.91;4979639;28;20023;-75
2023/08/15 00:27:09;;;;;;;25.17;8.18;;;;;;;-144.73;100.00;54370.75;4981702;28;20029;-74
2023/08/15 00:29:35;;;;;;;23.30;8.02;;;;;;;-144.73;100.00;54362.53;4971955;28;20035;-74
2023/08/15 00:32:00;;;;;;;16.15;8.38;;;;;;;-144.73;100.00;54407.69;4973066;28;20524;-75
2023/08/15 00:34:25;;;;;;;23.75;8.75;;;;;;;-144.73;100.00;54354.34;4964148;28;20035;-75
2023/08/15 00:36:51;;;;;;;12.85;7.68;;;;;;;-144.73;100.00;54350.22;4972536;28;20030;-75
2023/08/15 00:39:18;;;;;;;22.38;7.90;;;;;;;-144.73;100.00;54391.28;4971642;28;20037;-74
2023/08/15 00:41:46;;;;;;;22.42;8.38;;;;;;;-144.73;100.00;54407.69;4976481;28;20026;-74
2023/08/15 00:44:11;;;;;;;23.27;7.93;;;;;;;-144.73;100.00;54350.22;4980026;28;20031;-74
2023/08/15 00:46:38;;;;;;;20.90;8.23;;;;;;;-144.73;100.00;54350.22;4972626;28;20081;-73
2023/08/15 00:49:05;;;;;;;14.77;8.35;;;;;;;-144.73;100.00;54362.53;4982361;28;20025;-73
2023/08/15 00:51:31;;;;;;;20.48;8.23;;;;;;;-144.73;100.00;54362.53;4981735;28;20581;-72
2023/08/15 00:53:58;;;;;;;19.23;8.00;;;;;;;-144.73;100.00;54383.06;4986189;28;20466;-73
2023/08/15 00:56:24;;;;;;;17.90;7.80;;;;;;;-144.73;100.00;54391.28;4986440;28;20022;-72
2023/08/15 00:58:50;;;;;;;26.73;7.78;;;;;;;-144.73;100.00;54354.34;4974189;28;20034;-72
2023/08/15 01:01:21;;;;;;;21.60;9.43;;;;;;;-144.73;100.00;54358.44;4983478;28;20031;-73
2023/08/15 01:03:47;;;;;;;17.60;7.70;;;;;;;-144.73;100.00;54407.69;4972350;28;20153;-75
2023/08/15 01:06:13;;;;;;;24.83;7.65;;;;;;;-144.73;100.00;54358.44;4979458;28;20041;-72
2023/08/15 01:08:38;;;;;;;18.73;8.73;;;;;;;-144.73;100.00;54362.53;4983226;28;20026;-72
2023/08/15 01:11:04;;;;;;;20.98;7.90;;;;;;;-144.73;100.00;54329.72;4979467;28;20490;-73
2023/08/15 01:13:50;;;;;;;18.08;7.85;;;;;;;-144.73;100.00;54323.53;4983385;28;20026;-72
2023/08/15 01:16:22;;;;;;;20.20;8.63;;;;;;;-144.73;100.00;54385.13;4995667;28;20042;-72
2023/08/15 01:18:58;;;;;;;23.05;8.45;;;;;;;-144.73;100.00;54424.13;4999459;28;20021;-72
2023/08/15 01:21:32;;;;;;;14.60;7.43;;;;;;;-144.73;100.00;54420.00;4992238;28;20019;-73
2023/08/15 01:23:58;;;;;;;21.70;8.10;;;;;;;-144.73;100.00;54325.59;4990566;28;20022;-72
2023/08/15 01:26:23;;;;;;;18.23;6.47;;;;;;;-144.73;100.00;54366.66;4990359;28;20048;-72
2023/08/15 01:28:48;;;;;;;16.67;7.18;;;;;;;-144.73;100.00;54374.84;4988721;28;20030;-72
2023/08/15 01:31:25;;;;;;;15.50;7.18;;;;;;;-144.73;100.00;54387.19;4999134;28;20034;-72
2023/08/15 01:34:32;;;;;;;21.50;8.38;;;;;;;-144.73;100.00;54378.97;4999954;28;20025;-72
2023/08/15 01:37:05;;;;;;;19.25;7.95;;;;;;;-144.73;100.00;54374.84;5001789;28;20121;-72
2023/08/15 01:39:31;;;;;;;17.80;7.63;;;;;;;-144.73;100.00;54391.28;5000782;28;20059;-72
2023/08/15 01:41:59;;;;;;;12.48;8.23;;;;;;;-144.73;100.00;54370.75;4994418;28;20113;-73
2023/08/15 01:44:25;;;;;;;18.40;8.05;;;;;;;-144.73;100.00;54374.84;4996539;28;20023;-73
2023/08/15 01:46:51;;;;;;;19.27;7.03;;;;;;;-144.73;100.00;54378.97;4994030;28;20113;-73
2023/08/15 01:49:16;;;;;;;14.85;7.57;;;;;;;-144.73;100.00;54374.84;4999443;28;20030;-73
2023/08/15 01:51:42;;;;;;;16.02;7.63;;;;;;;-144.73;100.00;54407.69;5006737;28;20380;-73
2023/08/15 01:54:07;;;;;;;12.68;7.35;;;;;;;-144.73;100.00;54358.44;4997170;28;20046;-73
2023/08/15 01:56:33;;;;;;;18.38;6.47;;;;;;;-144.73;100.00;54383.06;5000268;28;20022;-74
2023/08/15 01:58:58;;;;;;;14.73;8.05;;;;;;;-144.73;100.00;54413.84;4997712;28;20026;-73
2023/08/15 02:01:23;;;;;;;17.65;8.23;;;;;;;-144.73;100.00;54360.50;4998366;28;20026;-73
2023/08/15 02:03:49;;;;;;;11.70;6.05;;;;;;;-144.73;100.00;54378.97;4998056;28;20013;-73
2023/08/15 02:06:14;;;;;;;12.13;7.13;;;;;;;-144.73;100.00;54370.75;4990083;28;20027;-73
2023/08/15 02:08:40;;;;;;;19.13;7.38;;;;;;;-144.73;100.00;54378.97;5000001;28;20079;-75
2023/08/15 02:11:05;;;;;;;16.00;7.95;;;;;;;-144.73;100.00;54333.81;5006087;28;20173;-73
2023/08/15 02:13:33;;;;;;;21.00;7.97;;;;;;;-144.73;100.00;54374.84;4997593;28;20022;-72
2023/08/15 02:15:59;;;;;;;16.48;7.72;;;;;;;-144.73;100.00;54378.97;4997476;28;20167;-73
2023/08/15 02:18:31;;;;;;;23.45;7.88;;;;;;;-144.73;100.00;54354.34;4992130;28;20512;-73
2023/08/15 02:20:57;;;;;;;22.00;8.43;;;;;;;-144.73;100.00;54407.69;5005213;28;20031;-72
2023/08/15 02:23:22;;;;;;;15.80;7.32;;;;;;;-144.73;100.00;54415.91;4998154;28;20037;-73
2023/08/15 02:25:48;;;;;;;19.17;8.65;;;;;;;-144.73;100.00;54409.75;4989919;28;20030;-73
2023/08/15 02:28:13;;;;;;;15.40;7.45;;;;;;;-144.73;100.00;54370.75;5002511;28;20041;-73
2023/08/15 02:30:39;;;;;;;26.60;8.40;;;;;;;-144.73;100.00;54407.69;4992439;28;20089;-74
2023/08/15 02:33:05;;;;;;;15.60;7.32;;;;;;;-144.73;100.00;54358.44;4994107;28;20054;-73
2023/08/15 02:35:30;;;;;;;20.75;8.65;;;;;;;-144.73;100.00;54354.34;5005209;28;20044;-73
2023/08/15 02:37:56;;;;;;;20.08;7.35;;;;;;;-144.73;100.00;54397.44;4992045;28;20474;-73
2023/08/15 02:40:24;;;;;;;12.32;7.72;;;;;;;-144.73;100.00;54428.22;4979930;28;20188;-73
2023/08/15 02:42:50;;;;;;;16.92;7.50;;;;;;;-144.73;100.00;54432.31;4989579;28;20078;-73
2023/08/15 02:45:15;;;;;;;16.88;7.28;;;;;;;-144.73;100.00;54407.69;4987131;28;20035;-73
2023/08/15 02:47:41;;;;;;;12.15;7.50;;;;;;;-144.73;100.00;54391.28;4986111;28;20117;-75
2023/08/15 02:50:06;;;;;;;16.95;7.85;;;;;;;-144.73;100.00;54395.38;4971436;28;20035;-73
2023/08/15 02:52:32;;;;;;;12.40;7.20;;;;;;;-144.73;100.00;54378.97;4966979;28;20078;-73
2023/08/15 02:54:57;;;;;;;14.38;8.27;;;;;;;-144.73;100.00;54415.91;4973838;28;20038;-73
2023/08/15 02:57:22;;;;;;;21.13;8.40;;;;;;;-144.73;100.00;54415.91;4974289;28;20117;-73
2023/08/15 02:59:48;;;;;;;16.92;7.15;;;;;;;-144.73;100.00;54407.69;4975315;28;20031;-74
2023/08/15 03:02:15;;;;;;;15.93;7.60;;;;;;;-144.73;100.00;54393.34;4979606;28;20062;-73
2023/08/15 03:04:40;;;;;;;12.52;6.30;;;;;;;-144.73;100.00;54395.38;4982550;28;20034;-73
2023/08/15 03:07:06;;;;;;;14.82;7.90;;;;;;;-144.73;100.00;54407.69;4994484;28;20110;-73
2023/08/15 03:09:31;;;;;;;14.18;7.13;;;;;;;-144.73;100.00;54383.06;4985742;28;20118;-73
2023/08/15 03:11:57;;;;;;;12.40;7.05;;;;;;;-144.73;100.00;54387.19;4973871;28;20027;-74
2023/08/15 03:14:22;;;;;;;16.13;8.05;;;;;;;-144.73;100.00;54407.69;4973614;28;20051;-73
2023/08/15 03:16:47;;;;;;;13.20;7.88;;;;;;;-144.73;100.00;54370.75;4966325;28;20030;-74
2023/08/15 03:19:13;;;;;;;23.17;9.48;;;;;;;-144.73;100.00;54391.28;4965822;28;20030;-75
2023/08/15 03:21:38;;;;;;;24.02;10.35;;;;;;;-144.73;100.00;54383.06;4989384;28;20030;-73
2023/08/15 03:24:03;;;;;;;22.23;9.48;;;;;;;-144.73;100.00;54411.81;4984565;28;20118;-73
2023/08/15 03:26:29;;;;;;;15.45;8.82;;;;;;;-144.73;100.00;54407.69;4992912;28;20033;-73
2023/08/15 03:28:56;;;;;;;24.20;11.23;;;;;;;-144.73;100.00;54397.44;4974043;28;20027;-75
2023/08/15 03:31:22;;;;;;;21.00;10.38;;;;;;;-144.73;100.00;54407.69;4981521;28;20109;-76
2023/08/15 03:33:47;;;;;;;21.35;9.80;;;;;;;-144.73;100.00;54436.44;4983506;28;20026;-76
2023/08/15 03:36:13;;;;;;;18.48;9.40;;;;;;;-144.73;100.00;54378.97;4980249;28;20027;-75
2023/08/15 03:38:41;;;;;;;16.15;8.82;;;;;;;-144.73;100.00;54407.69;4993713;28;20116;-76
2023/08/15 03:41:06;;;;;;;15.40;10.23;;;;;;;-144.73;100.00;54387.19;4993713;28;20040;-76
2023/08/15 03:43:33;;;;;;;22.58;11.50;;;;;;;-144.73;100.00;54374.84;4978158;28;20121;-76
2023/08/15 03:45:59;;;;;;;19.75;9.13;;;;;;;-144.73;100.00;54436.44;4981333;28;20035;-76
2023/08/15 03:48:25;;;;;;;23.02;9.18;;;;;;;-144.73;100.00;54391.28;4974441;28;20537;-75
2023/08/15 03:50:54;;;;;;;20.50;10.52;;;;;;;-144.73;100.00;54387.19;4975084;28;20110;-75
2023/08/15 03:53:19;;;;;;;19.30;11.60;;;;;;;-144.73;100.00;54389.22;4973630;28;20085;-76
2023/08/15 03:55:47;;;;;;;23.25;10.88;;;;;;;-144.73;100.00;54378.97;4973478;28;20030;-76
2023/08/15 03:58:12;;;;;;;17.55;10.23;;;;;;;-144.73;100.00;54411.81;4974480;28;20034;-76
2023/08/15 04:00:38;;;;;;;22.88;10.77;;;;;;;-144.73;100.00;54407.69;4982419;28;20038;-75
2023/08/15 04:03:03;;;;;;;18.95;11.35;;;;;;;-144.73;100.00;54420.00;4989712;28;20030;-76
2023/08/15 04:05:29;;;;;;;17.30;11.38;;;;;;;-144.73;100.00;54374.84;4973703;28;20068;-75
2023/08/15 04:07:54;;;;;;;19.90;11.32;;;;;;;-144.73;100.00;54434.38;4975841;28;20129;-75
2023/08/15 04:10:19;;;;;;;33.83;11.63;;;;;;;-144.73;100.00;54432.31;4973654;28;20054;-76
2023/08/15 04:12:45;;;;;;;21.83;12.73;;;;;;;-144.73;100.00;54395.38;4976117;28;20042;-76
2023/08/15 04:15:10;;;;;;;22.25;12.32;;;;;;;-144.73;100.00;54407.69;4973851;28;20031;-76
2023/08/15 04:17:36;;;;;;;22.92;13.05;;;;;;;-144.73;100.00;54448.75;4975174;28;20027;-76
2023/08/15 04:20:03;;;;;;;24.20;12.48;;;;;;;-144.73;100.00;54409.75;4974443;28;20058;-76
2023/08/15 04:22:28;;;;;;;30.55;13.07;;;;;;;-144.73;100.00;54417.97;4974324;28;20019;-77
2023/08/15 04:24:54;;;;;;;23.38;12.52;;;;;;;-144.73;100.00;54415.91;4973724;28;20049;-76
2023/08/15 04:27:19;;;;;;;20.50;11.82;;;;;;;-144.73;100.00;54444.66;4969193;28;20019;-76
2023/08/15 04:29:44;;;;;;;21.80;11.45;;;;;;;-144.73;100.00;54420.00;4954455;28;20039;-76
2023/08/15 04:32:10;;;;;;;20.48;13.00;;;;;;;-144.73;100.00;54391.28;4961252;28;20073;-77
2023/08/15 04:34:35;;;;;;;21.30;12.90;;;;;;;-144.73;100.00;54407.69;4981410;28;20031;-75
2023/08/15 04:37:01;;;;;;;26.58;13.18;;;;;;;-144.73;100.00;54391.28;4984783;28;20041;-76
2023/08/15 04:39:27;;;;;;;20.70;11.95;;;;;;;-144.73;100.00;54407.69;4973678;28;20081;-76
2023/08/15 04:41:52;;;;;;;26.15;11.95;;;;;;;-144.73;100.00;54432.31;4983068;28;20374;-76
2023/08/15 04:44:18;;;;;;;21.20;11.93;;;;;;;-144.73;100.00;54440.53;4978814;28;20084;-75
2023/08/15 04:46:43;;;;;;;21.60;13.05;;;;;;;-144.73;100.00;54387.19;4982136;28;20023;-76
2023/08/15 04:49:11;;;;;;;25.83;13.55;;;;;;;-144.73;100.00;54424.13;4972782;28;20031;-76
2023/08/15 04:51:37;;;;;;;23.00;11.77;;;;;;;-144.73;100.00;54411.81;4973231;28;20030;-76
2023/08/15 04:54:02;;;;;;;24.38;12.23;;;;;;;-144.73;100.00;54370.75;4983420;28;20501;-75
2023/08/15 04:56:28;;;;;;;20.08;11.13;;;;;;;-144.73;100.00;54438.50;4979056;28;20030;-77
2023/08/15 04:58:53;;;;;;;24.23;12.25;;;;;;;-144.73;100.00;54415.91;4973851;28;20109;-77
2023/08/15 05:01:19;;;;;;;23.55;11.93;;;;;;;-144.73;100.00;54407.69;4974475;28;20027;-76
2023/08/15 05:03:44;;;;;;;18.45;10.85;;;;;;;-144.73;100.00;54372.81;4972542;28;20173;-76
2023/08/15 05:06:10;;;;;;;19.38;11.88;;;;;;;-144.73;100.00;54420.00;4971857;28;20040;-76
2023/08/15 05:08:35;;;;;;;19.08;12.38;;;;;;;-144.73;100.00;54452.84;4972876;28;20105;-77
2023/08/15 05:11:01;;;;;;;14.65;9.70;;;;;;;-144.73;100.00;54428.22;4972374;28;20047;-77
2023/08/15 05:13:26;;;;;;;21.98;9.80;;;;;;;-144.73;100.00;54383.06;4973934;28;20035;-77
2023/08/15 05:15:53;;;;;;;20.45;10.45;;;;;;;-144.73;100.00;54469.28;4976416;28;20050;-76
2023/08/15 05:18:19;;;;;;;27.38;10.48;;;;;;;-144.73;100.00;54415.91;4993041;28;20029;-77
2023/08/15 05:20:48;;;;;;;20.30;11.38;;;;;;;-144.73;100.00;54385.13;4984232;28;20148;-76
2023/08/15 05:23:14;;;;;;;22.70;11.10;;;;;;;-144.73;100.00;54395.38;4981626;28;20142;-76
2023/08/15 05:25:41;;;;;;;15.25;9.88;;;;;;;-144.73;100.00;54436.44;4973304;28;20085;-75
2023/08/15 05:28:07;;;;;;;27.10;11.15;;;;;;;-144.73;100.00;54448.75;4972659;28;20053;-77
2023/08/15 05:30:33;;;;;;;19.33;10.13;;;;;;;-144.73;100.00;54399.50;4973348;28;20121;-77
2023/08/15 05:32:59;;;;;;;17.33;10.75;;;;;;;-144.73;100.00;54432.31;4976261;28;20018;-76
2023/08/15 05:35:24;;;;;;;19.08;10.35;;;;;;;-144.73;100.00;54473.38;4975982;28;20043;-77
2023/08/15 05:37:50;;;;;;;23.50;10.65;;;;;;;-144.73;100.00;54428.22;4975516;28;20030;-77
2023/08/15 05:40:16;;;;;;;23.10;11.25;;;;;;;-144.73;100.00;54407.69;4972260;28;20026;-77
2023/08/15 05:42:41;;;;;;;22.50;10.50;;;;;;;-144.73;100.00;54436.44;4973717;28;20081;-77
2023/08/15 05:45:08;;;;;;;24.38;10.60;;;;;;;-144.73;100.00;54411.81;4972562;28;20039;-76
2023/08/15 05:47:36;;;;;;;21.50;10.05;;;;;;;-144.73;100.00;54413.84;4989151;28;20062;-77
2023/08/15 05:50:03;;;;;;;14.63;9.30;;;;;;;-144.73;100.00;54413.84;4992548;28;20054;-77
2023/08/15 05:52:28;;;;;;;21.15;11.02;;;;;;;-144.73;100.00;54446.69;4985023;28;20121;-77
2023/08/15 05:54:55;;;;;;;20.80;10.05;;;;;;;-144.73;100.00;54436.44;4974911;28;20121;-77
2023/08/15 05:57:20;;;;;;;20.13;9.70;;;;;;;-144.73;100.00;54420.00;4982830;28;20026;-77
2023/08/15 05:59:46;;;;;;;21.67;9.88;;;;;;;-144.73;100.00;54415.91;4962016;28;20031;-77
2023/08/15 06:02:13;;;;;;;24.00;9.75;;;;;;;-144.73;100.00;54399.50;4972834;28;20027;-76
2023/08/15 06:04:39;;;;;;;17.73;8.55;;;;;;;-144.73;100.00;54407.69;4971804;28;20089;-77
2023/08/15 06:07:05;;;;;;;18.63;9.30;;;;;;;-144.73;100.00;54366.66;4982448;28;20034;-77
2023/08/15 06:09:30;;;;;;;24.77;9.50;;;;;;;-144.73;100.00;54411.81;4987266;28;20041;-77
2023/08/15 06:11:55;;;;;;;16.85;8.95;;;;;;;-144.73;100.00;54407.69;4991454;28;20022;-77
2023/08/15 06:14:21;;;;;;;20.75;9.30;;;;;;;-144.73;100.00;54415.91;4979396;28;20031;-77
2023/08/15 06:16:47;;;;;;;24.25;8.50;;;;;;;-144.73;100.00;54374.84;4972203;28;20026;-77
2023/08/15 06:19:12;;;;;;;32.15;8.75;;;;;;;-144.73;100.00;54428.22;4971834;28;20035;-76
2023/08/15 06:21:41;;;;;;;22.02;9.20;;;;;;;-144.73;100.00;54428.22;4989400;28;20034;-77
2023/08/15 06:24:08;;;;;;;22.17;9.25;;;;;;;-144.73;100.00;54420.00;4989323;28;20038;-77
2023/08/15 06:26:33;;;;;;;21.13;9.38;;;;;;;-144.73;100.00;54407.69;4972238;28;20031;-77
2023/08/15 06:28:59;;;;;;;24.58;8.30;;;;;;;-144.73;100.00;54415.91;4973818;28;20038;-76
2023/08/15 06:31:24;;;;;;;14.07;8.23;;;;;;;-144.73;100.00;54420.00;4973263;28;20026;-77
2023/08/15 06:33:49;;;;;;;23.00;9.30;;;;;;;-144.73;100.00;54420.00;4971751;28;20031;-77
2023/08/15 06:36:15;;;;;;;14.35;7.57;;;;;;;-144.73;100.00;54428.22;4973024;28;20023;-77
2023/08/15 06:38:40;;;;;;;17.73;7.75;;;;;;;-144.73;100.00;54444.66;4971811;28;20015;-76
2023/08/15 06:41:06;;;;;;;17.52;7.95;;;;;;;-144.73;100.00;54415.91;4968171;28;20483;-77
2023/08/15 06:43:32;;;;;;;14.68;7.82;;;;;;;-144.73;100.00;54374.84;4979333;28;20153;-77
2023/08/15 06:45:57;;;;;;;15.82;7.20;;;;;;;-144.73;100.00;54407.69;4976931;28;20034;-76
2023/08/15 06:48:23;;;;;;;13.10;7.45;;;;;;;-144.73;100.00;54376.91;4982625;28;20019;-76
2023/08/15 06:50:48;;;;;;;16.08;7.43;;;;;;;-144.73;100.00;54417.97;4976336;28;20034;-77
2023/08/15 06:53:14;;;;;;;22.40;8.00;;;;;;;-144.73;100.00;54366.66;4980614;28;20015;-77
2023/08/15 06:55:43;;;;;;;22.75;8.32;;;;;;;-144.73;100.00;54415.91;4971604;28;20074;-77
2023/08/15 06:58:09;;;;;;;20.02;8.73;;;;;;;-144.73;100.00;54399.50;4983659;28;20130;-77
2023/08/15 07:00:34;;;;;;;30.60;7.13;;;;;;;-144.73;100.00;54358.44;4979665;28;20054;-77
2023/08/15 07:02:59;;;;;;;19.20;6.95;;;;;;;-144.73;100.00;54391.28;4988380;28;20057;-77
2023/08/15 07:05:25;;;;;;;20.48;7.75;;;;;;;-144.73;100.00;54378.97;4978413;28;20039;-77
2023/08/15 07:07:50;;;;;;;22.95;7.82;;;;;;;-144.73;100.00;54389.22;4969110;28;20023;-78
2023/08/15 07:10:15;;;;;;;20.15;7.18;;;;;;;-144.73;100.00;54399.50;4981926;28;20023;-77
2023/08/15 07:12:41;;;;;;;23.55;7.63;;;;;;;-144.73;100.00;54370.75;4975513;28;20022;-76
2023/08/15 07:15:06;;;;;;;20.95;7.00;;;;;;;-144.73;100.00;54456.97;4980035;28;20165;-76
2023/08/15 07:17:32;;;;;;;17.80;6.97;;;;;;;-144.73;100.00;54407.69;4986662;28;20029;-77
2023/08/15 07:19:58;;;;;;;17.58;7.55;;;;;;;-144.73;100.00;54415.91;4981531;28;20031;-76
2023/08/15 07:22:23;;;;;;;13.88;7.78;;;;;;;-144.73;100.00;54397.44;4972294;28;20086;-76
2023/08/15 07:24:48;;;;;;;17.45;6.50;;;;;;;-144.73;100.00;54389.22;4979211;28;20026;-77
2023/08/15 07:27:14;;;;;;;18.08;6.90;;;;;;;-144.73;100.00;54407.69;4974462;28;20061;-77
2023/08/15 07:29:39;;;;;;;19.88;7.20;;;;;;;-144.73;100.00;54374.84;4975174;28;20035;-77
2023/08/15 07:32:06;;;;;;;14.77;6.97;;;;;;;-144.73;100.00;54395.38;4976448;28;20467;-77
2023/08/15 07:34:32;;;;;;;16.25;6.80;;;;;;;-144.73;100.00;54413.84;4981596;28;20039;-77
2023/08/15 07:36:57;;;;;;;24.60;6.97;;;;;;;-144.73;100.00;54440.53;4982334;28;20545;-77
2023/08/15 07:39:23;;;;;;;12.88;6.40;;;;;;;-144.73;100.00;54424.13;4975587;28;20037;-77
2023/08/15 07:41:49;;;;;;;9.85;6.20;;;;;;;-144.73;100.00;54391.28;4986196;28;20029;-78
2023/08/15 07:44:14;;;;;;;19.08;6.70;;;;;;;-144.73;100.00;54415.91;4981411;28;20113;-77
2023/08/15 07:46:39;;;;;;;15.00;6.95;;;;;;;-144.73;100.00;54415.91;4983919;28;20026;-76
2023/08/15 07:49:05;;;;;;;12.15;7.28;;;;;;;-144.73;100.00;54385.13;4978472;28;20022;-77
2023/08/15 07:51:31;;;;;;;14.95;6.35;;;;;;;-144.73;100.00;54395.38;4981225;28;20137;-76
2023/08/15 07:53:57;;;;;;;24.48;7.13;;;;;;;-144.73;100.00;54389.22;4979908;28;20035;-76
2023/08/15 07:56:22;;;;;;;18.08;6.78;;;;;;;-144.73;100.00;54387.19;4993387;28;20025;-76
2023/08/15 07:58:47;;;;;;;13.88;6.63;;;;;;;-144.73;100.00;54428.22;4980199;28;20426;-77
2023/08/15 08:01:13;;;;;;;24.92;6.82;;;;;;;-144.73;100.00;54411.81;4970854;28;20046;-77
2023/08/15 08:03:42;;;;;;;14.02;7.05;;;;;;;-144.73;100.00;54436.44;4970784;28;20027;-76
2023/08/15 08:06:08;;;;;;;13.10;7.30;;;;;;;-144.73;100.00;54432.31;4974428;28;20042;-76
2023/08/15 08:08:33;;;;;;;25.05;7.35;;;;;;;-144.73;100.00;54387.19;4970239;28;20077;-76
2023/08/15 08:10:59;;;;;;;11.65;7.60;;;;;;;-144.73;100.00;54424.13;4970460;28;20038;-75
2023/08/15 08:13:24;;;;;;;25.27;7.82;;;;;;;-144.73;100.00;54411.81;4976297;28;20469;-76
2023/08/15 08:15:50;;;;;;;27.63;9.00;;;;;;;-144.73;100.00;54399.50;4971026;28;20035;-74
2023/08/15 08:18:15;;;;;;;19.00;9.10;;;;;;;-144.73;100.00;54397.44;4977914;28;20023;-72
2023/08/15 08:20:41;;;;;;;15.85;8.77;;;;;;;-144.73;100.00;54448.75;4973210;28;20039;-73
2023/08/15 08:23:06;;;;;;;15.20;8.95;;;;;;;-144.73;100.00;54428.22;4975773;28;20029;-74
2023/08/15 08:25:32;;;;;;;14.52;8.57;;;;;;;-144.73;100.00;54399.50;4974254;28;20031;-74
2023/08/15 08:27:57;;;;;;;18.27;9.55;;;;;;;-144.73;100.00;54465.16;4975389;28;20081;-74
2023/08/15 08:30:23;;;;;;;15.80;9.32;;;;;;;-144.73;100.00;54432.31;4974032;28;20030;-74
2023/08/15 08:32:50;;;;;;;27.52;9.48;;;;;;;-144.73;100.00;54420.00;4980531;28;20113;-75
2023/08/15 08:35:16;;;;;;;12.45;8.80;;;;;;;-144.73;100.00;54424.13;4977984;28;20494;-76
2023/08/15 08:37:43;;;;;;;19.67;9.07;;;;;;;-144.73;100.00;54426.16;4975878;28;20065;-76
2023/08/15 08:40:09;;;;;;;19.98;9.32;;;;;;;-144.73;100.00;54440.53;4975740;28;20559;-75
2023/08/15 08:42:35;;;;;;;30.15;10.20;;;;;;;-144.73;100.00;54456.97;4979430;28;20441;-75
2023/08/15 08:45:05;;;;;;;19.98;10.63;;;;;;;-144.73;100.00;54463.13;4978989;28;20198;-76
2023/08/15 08:47:32;;;;;;;13.60;10.20;;;;;;;-144.73;100.00;54436.44;4977270;28;20109;-76
2023/08/15 08:50:00;;;;;;;18.13;10.10;;;;;;;-144.73;100.00;54428.22;4982708;28;20030;-76
2023/08/15 08:52:27;;;;;;;15.75;10.27;;;;;;;-144.73;100.00;54420.00;4978757;28;20030;-77
2023/08/15 08:54:52;;;;;;;21.17;11.73;;;;;;;-144.73;100.00;54424.13;4995304;28;20042;-76
2023/08/15 08:57:19;;;;;;;16.45;10.68;;;;;;;-144.73;100.00;54448.75;4979884;28;20014;-76
2023/08/15 08:59:45;;;;;;;19.83;11.10;;;;;;;-144.73;100.00;54475.44;4979929;28;20041;-76
2023/08/15 09:02:16;;;;;;;22.77;11.75;;;;;;;-144.73;100.00;54452.84;4982223;28;20022;-76
2023/08/15 09:04:41;;;;;;;24.95;10.95;;;;;;;-144.73;100.00;54434.38;4980732;28;20031;-76
2023/08/15 09:07:07;;;;;;;21.45;11.82;;;;;;;-144.73;100.00;54432.31;4980425;28;20042;-75
2023/08/15 09:09:33;;;;;;;22.13;11.23;;;;;;;-144.73;100.00;54448.75;4980185;28;20035;-76
2023/08/15 09:11:58;;;;;;;27.60;10.90;;;;;;;-144.73;100.00;54434.38;4978911;28;20034;-75
2023/08/15 09:14:23;;;;;;;25.23;10.88;;;;;;;-144.73;100.00;54432.31;4981387;28;20042;-76
2023/08/15 09:16:49;;;;;;;18.08;9.95;;;;;;;-144.73;100.00;54428.22;4978368;28;20018;-76
2023/08/15 09:19:18;;;;;;;21.08;10.63;;;;;;;-144.73;100.00;54424.13;4978870;28;20122;-75
2023/08/15 09:21:46;;;;;;;16.00;10.02;;;;;;;-144.73;100.00;54424.13;4980459;28;20014;-77
2023/08/15 09:24:26;;;;;;;16.50;10.00;;;;;;;-144.73;100.00;54456.97;4983656;28;20034;-76
2023/08/15 09:26:51;;;;;;;17.50;10.40;;;;;;;-144.73;100.00;54424.13;4980912;28;20109;-76
2023/08/15 09:29:16;;;;;;;23.40;10.13;;;;;;;-144.73;100.00;54426.16;4980365;28;20118;-76
2023/08/15 09:31:43;;;;;;;15.60;10.10;;;;;;;-144.73;100.00;54413.84;4957669;28;20041;-75
2023/08/15 09:34:10;;;;;;;15.10;9.10;;;;;;;-144.73;100.00;54436.44;4967263;28;20043;-76
2023/08/15 09:36:35;;;;;;;15.18;9.23;;;;;;;-144.73;100.00;54428.22;4969696;28;20117;-74
2023/08/15 09:39:01;;;;;;;20.10;9.57;;;;;;;-144.73;100.00;54407.69;4968629;28;20077;-73
2023/08/15 09:41:26;;;;;;;17.95;10.07;;;;;;;-144.73;100.00;54424.13;4976908;28;20038;-73
2023/08/15 09:43:53;;;;;;;19.85;9.35;;;;;;;-144.73;100.00;54415.91;4979147;28;20122;-73
2023/08/15 09:46:20;;;;;;;14.48;8.13;;;;;;;-144.73;100.00;54424.13;4971272;28;20033;-73
2023/08/15 09:48:47;;;;;;;26.25;9.27;;;;;;;-144.73;100.00;54420.00;4975350;28;20027;-76
2023/08/15 09:51:15;;;;;;;18.27;8.75;;;;;;;-144.73;100.00;54407.69;4975375;28;20061;-76
2023/08/15 09:53:42;;;;;;;14.88;7.85;;;;;;;-144.73;100.00;54393.34;4977303;28;20021;-74
2023/08/15 09:56:08;;;;;;;17.15;7.70;;;;;;;-144.73;100.00;54354.34;4975564;28;20034;-75
2023/08/15 09:58:33;;;;;;;16.83;5.68;;;;;;;-144.73;100.00;54378.97;4977185;28;20045;-74
2023/08/15 10:01:02;;;;;;;11.20;6.20;;;;;;;-144.73;100.00;54370.75;4969213;28;20039;-75
2023/08/15 10:03:35;;;;;;;13.15;5.95;;;;;;;-144.73;100.00;54374.84;4969120;28;20026;-75
2023/08/15 10:06:04;;;;;;;19.70;6.30;;;;;;;-144.73;100.00;54407.69;4968665;28;20443;-75
2023/08/15 10:08:31;;;;;;;14.45;6.15;;;;;;;-144.73;100.00;54383.06;4970039;28;20062;-75
2023/08/15 10:10:58;;;;;;;16.85;7.30;;;;;;;-144.73;100.00;54358.44;4959436;28;20066;-75
2023/08/15 10:13:43;;;;;;;13.68;6.43;;;;;;;-144.73;100.00;54395.38;4969108;28;20041;-75
2023/08/15 10:16:14;;;;;;;12.27;6.13;;;;;;;-144.73;100.00;54337.91;4980716;28;20070;-75
2023/08/15 10:18:51;;;;;;;13.75;5.45;;;;;;;-144.73;100.00;54362.53;4974718;28;20018;-74
2023/08/15 10:21:17;;;;;;;14.85;6.32;;;;;;;-144.73;100.00;54378.97;4975853;28;20049;-74
2023/08/15 10:23:42;;;;;;;15.73;6.35;;;;;;;-144.73;100.00;54354.34;4972920;28;20022;-75
2023/08/15 10:26:07;;;;;;;15.57;6.20;;;;;;;-144.73;100.00;54366.66;4971902;28;20049;-74
2023/08/15 10:28:34;;;;;;;12.40;5.40;;;;;;;-144.73;100.00;54370.75;4970981;28;20037;-74
2023/08/15 10:30:59;;;;;;;13.25;5.63;;;;;;;-144.73;100.00;54411.81;4979843;28;20039;-74
2023/08/15 10:33:29;;;;;;;12.05;5.50;;;;;;;-144.73;100.00;54362.53;4974287;28;20390;-74
2023/08/15 10:35:54;;;;;;;19.20;5.85;;;;;;;-144.73;100.00;54393.34;4970581;28;20069;-74
2023/08/15 10:38:29;;;;;;;11.65;5.53;;;;;;;-144.73;100.00;54346.13;4977143;28;20477;-75
2023/08/15 10:41:06;;;;;;;11.63;5.50;;;;;;;-144.73;100.00;54395.38;4982142;28;20039;-74
2023/08/15 10:43:33;;;;;;;10.73;5.50;;;;;;;-144.73;100.00;54420.00;4974584;28;20026;-75
2023/08/15 10:46:01;;;;;;;9.50;4.82;;;;;;;-144.73;100.00;54358.44;4981593;28;20050;-76
2023/08/15 10:48:47;;;;;;;13.80;5.15;;;;;;;-144.73;100.00;54399.50;4976874;28;20026;-75
2023/08/15 10:51:25;;;;;;;10.57;4.53;;;;;;;-144.73;100.00;54337.91;4964147;28;20110;-75
2023/08/15 10:53:52;;;;;;;8.77;4.38;;;;;;;-144.73;100.00;54358.44;4970131;28;20041;-75
2023/08/15 10:56:19;;;;;;;11.38;5.30;;;;;;;-144.73;100.00;54381.00;4975065;28;20019;-75